Time;durP1;ratioP1;P1;durP2;ratioP2;P2;SDS_P1;SDS_P2;PMS_P1;PMS_P2;Temp;Humidity;BMP_temperature;BMP_pressure;BME280_temperature;BME280_humidity;BME280_pressure;Samples;Min_cycle;Max_cycle;Signal;HPM_P1;HPM_P2
2023/09/29 00:04:45;;;;;;;12.05;8.07;;;14.50;99.90;;;;;;10122529;29;20232;-91
2023/09/29 00:09:48;;;;;;;10.35;8.65;;;14.50;99.90;;;;;;10121876;29;20240;-91
2023/09/29 00:14:52;;;;;;;14.95;8.95;;;14.40;99.90;;;;;;10129970;29;20374;-90
2023/09/29 00:19:54;;;;;;;14.75;11.13;;;14.50;99.90;;;;;;10129182;29;20311;-90
2023/09/29 00:24:57;;;;;;;14.60;10.48;;;14.50;99.90;;;;;;10111805;29;20267;-91
2023/09/29 00:30:00;;;;;;;11.70;8.50;;;14.20;99.90;;;;;;10128863;29;20240;-90
2023/09/29 00:35:04;;;;;;;17.23;10.45;;;14.40;99.90;;;;;;10111630;29;20272;-90
2023/09/29 00:40:12;;;;;;;17.30;11.70;;;14.30;99.90;;;;;;10111974;29;20259;-90
2023/09/29 00:45:26;;;;;;;19.98;11.05;;;14.10;99.90;;;;;;10110942;29;20284;-90
2023/09/29 00:50:29;;;;;;;12.15;9.75;;;13.90;99.90;;;;;;10128353;29;20239;-90
2023/09/29 00:55:36;;;;;;;17.23;11.20;;;;;;;;;;10111846;29;21065;-91
2023/09/29 01:00:41;;;;;;;16.02;11.13;;;13.90;99.90;;;;;;10127618;29;20264;-90
2023/09/29 01:05:46;;;;;;;16.27;9.90;;;13.60;99.90;;;;;;10110547;29;20247;-90
2023/09/29 01:10:49;;;;;;;19.25;10.85;;;13.40;99.90;;;;;;10111347;29;20244;-90
2023/09/29 01:15:54;;;;;;;13.05;10.10;;;;;;;;;;10110484;29;20771;-90
2023/09/29 01:20:57;;;;;;;12.27;10.07;;;13.10;99.90;;;;;;10128335;29;20247;-91
2023/09/29 01:26:02;;;;;;;13.25;9.73;;;12.80;99.90;;;;;;10110458;29;20252;-89
2023/09/29 01:31:06;;;;;;;16.65;11.07;;;12.80;99.90;;;;;;10137609;29;20255;-90
2023/09/29 01:36:09;;;;;;;15.57;11.18;;;12.80;99.90;;;;;;10150100;29;20231;-90
2023/09/29 01:41:16;;;;;;;17.80;10.63;;;12.70;99.90;;;;;;10149625;29;20267;-89
2023/09/29 01:46:18;;;;;;;14.75;11.82;;;12.80;99.90;;;;;;10161010;29;20244;-90
2023/09/29 01:51:21;;;;;;;15.88;12.32;;;12.90;99.90;;;;;;10126617;29;20669;-90
2023/09/29 01:56:24;;;;;;;9.40;8.45;;;12.90;99.90;;;;;;10115701;29;20307;-91
2023/09/29 02:01:26;;;;;;;12.95;10.65;;;13.00;99.90;;;;;;10104263;29;20267;-90
2023/09/29 02:06:29;;;;;;;13.90;10.63;;;13.20;99.90;;;;;;10117077;29;20279;-90
2023/09/29 02:11:32;;;;;;;15.73;10.68;;;13.10;99.90;;;;;;10117640;29;20295;-90
2023/09/29 02:16:35;;;;;;;12.55;9.40;;;12.90;99.90;;;;;;10108147;29;20241;-90
2023/09/29 02:21:38;;;;;;;15.98;10.68;;;13.00;99.90;;;;;;10115905;29;20759;-91
2023/09/29 02:26:41;;;;;;;15.48;10.65;;;12.90;99.90;;;;;;10116152;29;20276;-90
2023/09/29 02:31:44;;;;;;;16.05;10.18;;;12.70;99.90;;;;;;10116403;29;20256;-90
2023/09/29 02:36:46;;;;;;;14.95;7.85;;;12.70;99.90;;;;;;10115931;29;20272;-90
2023/09/29 02:41:49;;;;;;;15.18;9.95;;;12.80;99.90;;;;;;10116523;29;20271;-89
2023/09/29 02:46:51;;;;;;;19.35;12.23;;;12.90;99.90;;;;;;10116089;29;20742;-91
2023/09/29 02:51:54;;;;;;;14.55;9.75;;;12.80;99.90;;;;;;10116362;29;20252;-90
2023/09/29 02:56:57;;;;;;;18.10;10.15;;;12.50;99.90;;;;;;10115429;29;20327;-90
2023/09/29 03:02:01;;;;;;;18.83;11.27;;;12.50;99.90;;;;;;10099129;29;20739;-90
2023/09/29 03:07:09;;;;;;;11.23;9.68;;;12.40;99.90;;;;;;10114260;29;20240;-90
2023/09/29 03:12:13;;;;;;;13.50;10.05;;;12.40;99.90;;;;;;10114191;29;20299;-90
2023/09/29 03:17:15;;;;;;;16.35;10.32;;;12.40;99.90;;;;;;10131992;29;20315;-91
2023/09/29 03:22:18;;;;;;;13.93;10.73;;;12.50;99.90;;;;;;10115379;29;20252;-90
2023/09/29 03:27:23;;;;;;;15.20;10.80;;;12.50;99.90;;;;;;10114870;29;20268;-91
2023/09/29 03:32:26;;;;;;;12.48;10.40;;;12.30;99.90;;;;;;10094921;29;20248;-91
2023/09/29 03:37:29;;;;;;;14.02;10.50;;;12.50;99.90;;;;;;10075758;29;20252;-91
2023/09/29 03:42:32;;;;;;;15.68;10.52;;;12.60;99.90;;;;;;10092690;29;20776;-91
2023/09/29 03:47:35;;;;;;;21.85;11.88;;;12.60;99.90;;;;;;10092466;29;20330;-90
2023/09/29 03:52:39;;;;;;;11.52;9.48;;;12.80;99.90;;;;;;10091607;29;20244;-90
2023/09/29 03:57:44;;;;;;;22.20;12.55;;;13.00;99.90;;;;;;10090189;29;20248;-90
2023/09/29 04:02:50;;;;;;;11.48;7.47;;;13.10;99.90;;;;;;10091611;29;20289;-91
2023/09/29 04:07:55;;;;;;;13.85;11.25;;;12.80;99.90;;;;;;10088251;29;20784;-91
2023/09/29 04:12:58;;;;;;;13.60;11.10;;;13.20;99.90;;;;;;10123737;29;20236;-90
2023/09/29 04:18:00;;;;;;;8.15;5.82;;;12.50;99.90;;;;;;10107798;29;20265;-90
2023/09/29 04:23:06;;;;;;;14.82;10.57;;;12.70;99.90;;;;;;10070929;29;20686;-90
2023/09/29 04:28:09;;;;;;;18.17;10.77;;;13.00;99.90;;;;;;10066784;29;20677;-89
2023/09/29 04:33:12;;;;;;;17.88;11.02;;;12.60;99.90;;;;;;10111378;29;20236;-90
2023/09/29 04:38:15;;;;;;;14.93;11.07;;;12.50;99.90;;;;;;10113411;29;20296;-90
2023/09/29 04:43:18;;;;;;;22.95;13.00;;;12.30;99.90;;;;;;10101968;29;20255;-90
2023/09/29 04:48:21;;;;;;;19.95;11.60;;;12.10;99.90;;;;;;10118026;29;20301;-89
2023/09/29 04:53:24;;;;;;;20.92;11.25;;;12.20;99.90;;;;;;10096345;29;20236;-91
2023/09/29 04:58:36;;;;;;;14.93;9.88;;;12.00;99.90;;;;;;10124694;29;20291;-91
2023/09/29 05:03:38;;;;;;;15.15;9.13;;;12.40;99.90;;;;;;10101675;29;20312;-90
2023/09/29 05:08:44;;;;;;;19.63;11.57;;;12.30;99.90;;;;;;10098888;29;20866;-89
2023/09/29 05:13:50;;;;;;;16.13;10.35;;;;;;;;;;10093848;29;20245;-90
2023/09/29 05:18:54;;;;;;;29.13;12.15;;;;;;;;;;10089760;29;20244;-90
2023/09/29 05:23:57;;;;;;;20.25;9.60;;;11.80;99.90;;;;;;10088203;29;20352;-89
2023/09/29 05:29:00;;;;;;;18.92;11.52;;;12.30;99.90;;;;;;10127385;29;20232;-91
2023/09/29 05:34:04;;;;;;;21.83;11.95;;;12.40;99.90;;;;;;10118856;29;20216;-91
2023/09/29 05:39:07;;;;;;;35.42;13.85;;;12.40;99.90;;;;;;10115441;29;20287;-91
2023/09/29 05:44:10;;;;;;;23.27;13.25;;;12.30;99.90;;;;;;10114408;29;20333;-83
2023/09/29 05:49:13;;;;;;;32.85;13.63;;;12.60;99.90;;;;;;10133755;29;20244;-85
2023/09/29 05:54:15;;;;;;;28.27;14.25;;;13.60;99.90;;;;;;10134672;29;20303;-85
2023/09/29 05:59:20;;;;;;;22.98;13.35;;;13.50;99.90;;;;;;10134871;29;20270;-85
2023/09/29 06:04:22;;;;;;;27.20;11.30;;;13.40;99.90;;;;;;10132215;29;20601;-83
2023/09/29 06:09:26;;;;;;;14.75;9.82;;;13.70;99.90;;;;;;10119572;29;20280;-92
2023/09/29 06:14:31;;;;;;;12.73;9.38;;;14.50;99.90;;;;;;10131125;29;20646;-91
2023/09/29 06:19:34;;;;;;;13.35;8.10;;;15.10;99.90;;;;;;10116957;29;20299;-91
2023/09/29 06:24:37;;;;;;;14.70;8.25;;;15.30;99.90;;;;;;10135458;29;20271;-92
2023/09/29 06:29:40;;;;;;;19.23;11.32;;;15.60;99.90;;;;;;10134023;29;20228;-93
2023/09/29 06:34:43;;;;;;;14.38;11.23;;;15.60;99.90;;;;;;10118165;29;20204;-91
2023/09/29 06:39:45;;;;;;;22.40;12.05;;;15.80;99.90;;;;;;10133616;29;20240;-92
2023/09/29 06:44:48;;;;;;;15.93;11.18;;;15.90;99.90;;;;;;10106970;29;20641;-91
2023/09/29 06:49:50;;;;;;;12.68;8.95;;;16.10;99.90;;;;;;10135778;29;20213;-92
2023/09/29 06:54:53;;;;;;;14.40;10.20;;;16.30;99.90;;;;;;10119655;29;20621;-91
2023/09/29 06:59:56;;;;;;;10.63;8.23;;;16.50;99.90;;;;;;10117083;29;20240;-89
2023/09/29 07:04:59;;;;;;;15.25;7.75;;;16.60;99.90;;;;;;10120450;29;20200;-91
2023/09/29 07:10:05;;;;;;;26.50;11.88;;;16.90;99.90;;;;;;10142175;29;20208;-91
2023/09/29 07:15:10;;;;;;;12.45;6.30;;;17.00;99.90;;;;;;10124751;29;20208;-91
2023/09/29 07:20:13;;;;;;;7.07;6.38;;;17.20;99.90;;;;;;10142152;29;20196;-91
2023/09/29 07:25:15;;;;;;;7.72;6.32;;;17.40;99.90;;;;;;10117203;29;20244;-90
2023/09/29 07:30:18;;;;;;;18.20;11.90;;;17.60;99.90;;;;;;10106897;29;20627;-91
2023/09/29 07:35:21;;;;;;;16.17;9.52;;;17.80;99.60;;;;;;10103688;29;20281;-91
2023/09/29 07:40:24;;;;;;;21.75;12.25;;;17.90;99.80;;;;;;10080988;29;20225;-91
2023/09/29 07:45:26;;;;;;;8.10;7.30;;;18.20;99.30;;;;;;10085657;29;20213;-91
2023/09/29 07:50:29;;;;;;;19.42;12.05;;;18.40;99.10;;;;;;10087601;29;20241;-90
2023/09/29 07:55:32;;;;;;;14.00;8.48;;;18.60;97.70;;;;;;10067011;29;20209;-90
2023/09/29 08:00:34;;;;;;;18.08;11.15;;;18.80;97.80;;;;;;10077589;29;20662;-89
2023/09/29 08:05:37;;;;;;;22.10;10.88;;;19.10;96.50;;;;;;10085178;29;20205;-91
2023/09/29 08:10:41;;;;;;;15.85;9.25;;;19.40;96.00;;;;;;10098458;29;20285;-90
2023/09/29 08:15:45;;;;;;;8.40;6.60;;;19.70;95.60;;;;;;10096655;29;20213;-90
2023/09/29 08:20:53;;;;;;;16.45;9.27;;;20.00;94.90;;;;;;10100292;29;20660;-90
2023/09/29 08:25:56;;;;;;;12.90;8.10;;;20.20;94.50;;;;;;10115737;29;20288;-92
2023/09/29 08:30:59;;;;;;;11.80;6.97;;;20.40;93.20;;;;;;10136553;29;20252;-89
2023/09/29 08:36:03;;;;;;;12.43;8.05;;;;;;;;;;10153261;29;20232;-89
2023/09/29 08:41:08;;;;;;;12.23;8.32;;;21.20;99.90;;;;;;10182247;29;20253;-89
2023/09/29 08:46:13;;;;;;;7.82;6.20;;;;;;;;;;10182184;29;20185;-90
2023/09/29 08:51:17;;;;;;;14.13;8.18;;;22.50;99.90;;;;;;10167006;29;20180;-89
2023/09/29 08:56:21;;;;;;;13.23;6.78;;;21.40;91.70;;;;;;10182505;29;20207;-89
2023/09/29 09:01:24;;;;;;;12.32;8.20;;;21.70;89.90;;;;;;10182372;29;20204;-89
2023/09/29 09:06:27;;;;;;;12.63;7.50;;;21.90;88.30;;;;;;10197366;29;20239;-90
2023/09/29 09:11:41;;;;;;;5.47;4.97;;;;;;;;;;10190731;29;20201;-89
2023/09/29 09:16:45;;;;;;;16.48;7.15;;;22.30;85.30;;;;;;10152606;29;20192;-89
2023/09/29 09:21:48;;;;;;;9.63;7.68;;;21.30;90.20;;;;;;10190694;29;20226;-89
2023/09/29 09:26:52;;;;;;;8.35;6.10;;;;;;;;;;10190180;29;20220;-89
2023/09/29 09:31:59;;;;;;;14.60;6.57;;;23.40;90.80;;;;;;10193310;29;20212;-90
2023/09/29 09:37:03;;;;;;;13.98;7.15;;;23.10;82.30;;;;;;10172023;29;20194;-89
2023/09/29 09:42:08;;;;;;;8.10;6.07;;;23.10;79.30;;;;;;10189281;29;20208;-89
2023/09/29 09:47:14;;;;;;;5.50;4.95;;;23.20;75.00;;;;;;10172576;29;20184;-89
2023/09/29 09:52:25;;;;;;;6.72;5.15;;;23.40;72.10;;;;;;10186790;29;20193;-88
2023/09/29 09:57:34;;;;;;;8.90;6.32;;;;;;;;;;10189661;29;20220;-90
2023/09/29 10:02:43;;;;;;;6.50;5.10;;;23.60;70.50;;;;;;10162050;29;20216;-88
2023/09/29 10:07:47;;;;;;;5.97;4.43;;;23.70;70.00;;;;;;10186539;29;20209;-88
2023/09/29 10:12:55;;;;;;;8.27;6.03;;;23.50;92.70;;;;;;10171356;29;20192;-89
2023/09/29 10:18:13;;;;;;;9.65;6.78;;;23.80;91.90;;;;;;10171583;29;20189;-89
2023/09/29 10:23:17;;;;;;;7.28;6.30;;;;;;;;;;10171671;29;20252;-89
2023/09/29 10:28:32;;;;;;;11.88;6.22;;;24.20;63.60;;;;;;10187140;29;20253;-89
2023/09/29 10:33:55;;;;;;;8.40;5.85;;;24.20;62.70;;;;;;10169070;29;20189;-89
2023/09/29 10:39:03;;;;;;;10.52;6.97;;;24.20;63.20;;;;;;10135097;29;20260;-89
2023/09/29 10:44:06;;;;;;;5.90;5.40;;;24.20;61.90;;;;;;10133207;29;20237;-87
2023/09/29 10:49:10;;;;;;;6.63;5.25;;;24.30;62.80;;;;;;10149214;29;20193;-88
2023/09/29 10:54:12;;;;;;;6.47;5.85;;;24.30;62.30;;;;;;10150385;29;20189;-89
2023/09/29 10:59:15;;;;;;;9.23;6.53;;;24.40;61.20;;;;;;10150834;29;20260;-89
2023/09/29 11:04:18;;;;;;;14.48;10.90;;;;;;;;;;10158442;29;20209;-89
2023/09/29 11:09:28;;;;;;;6.93;6.22;;;24.70;68.50;;;;;;10167982;29;20177;-88
2023/09/29 11:14:37;;;;;;;9.10;6.68;;;24.60;60.30;;;;;;10174828;29;20193;-89
2023/09/29 11:19:59;;;;;;;8.52;5.53;;;;;;;;;;10149015;29;20213;-89
2023/09/29 11:25:03;;;;;;;11.10;7.15;;;24.60;71.10;;;;;;10159263;29;20228;-90
2023/09/29 11:30:06;;;;;;;9.75;6.32;;;24.90;78.50;;;;;;10170179;29;20180;-89
2023/09/29 11:35:13;;;;;;;5.40;4.30;;;24.90;88.40;;;;;;10171043;29;20204;-89
2023/09/29 11:40:16;;;;;;;6.32;5.43;;;24.90;58.10;;;;;;10170906;29;20222;-89
2023/09/29 11:45:19;;;;;;;7.75;6.70;;;25.00;50.60;;;;;;10185916;29;20224;-88
2023/09/29 11:50:31;;;;;;;7.40;6.70;;;25.10;50.60;;;;;;10186519;29;20221;-89
2023/09/29 11:55:36;;;;;;;5.90;4.63;;;25.20;52.40;;;;;;10153742;29;20248;-89
2023/09/29 12:00:42;;;;;;;9.02;6.35;;;25.30;48.00;;;;;;10139145;29;20672;-89
2023/09/29 12:05:45;;;;;;;6.65;5.93;;;25.40;48.30;;;;;;10115632;29;20288;-89
2023/09/29 12:10:48;;;;;;;7.47;5.93;;;25.40;48.50;;;;;;10100228;29;20272;-89
2023/09/29 12:15:51;;;;;;;6.30;4.63;;;25.50;44.00;;;;;;10137911;29;20242;-88
2023/09/29 12:20:56;;;;;;;6.38;5.47;;;25.60;44.90;;;;;;10137315;29;20240;-89
2023/09/29 12:25:59;;;;;;;9.27;6.03;;;25.60;45.60;;;;;;10135581;29;20315;-89
2023/09/29 12:31:17;;;;;;;8.18;5.75;;;25.50;44.20;;;;;;10128749;29;20256;-87
2023/09/29 12:36:20;;;;;;;7.95;5.68;;;25.50;47.30;;;;;;10098308;29;20209;-88
2023/09/29 12:41:23;;;;;;;5.72;5.05;;;25.50;44.80;;;;;;10081880;29;20236;-90
2023/09/29 12:46:25;;;;;;;6.35;4.78;;;25.50;44.60;;;;;;10098529;29;20583;-89
2023/09/29 12:51:28;;;;;;;8.15;5.20;;;25.40;44.50;;;;;;10119365;29;20209;-89
2023/09/29 12:56:30;;;;;;;6.47;5.75;;;25.40;42.90;;;;;;10137702;29;20241;-89
2023/09/29 13:01:33;;;;;;;6.57;5.43;;;25.40;42.10;;;;;;10138032;29;20212;-88
2023/09/29 13:06:36;;;;;;;18.80;6.07;;;25.40;41.90;;;;;;10136229;29;20204;-89
2023/09/29 13:11:39;;;;;;;13.52;5.63;;;25.50;43.40;;;;;;10120619;29;20216;-91
2023/09/29 13:16:41;;;;;;;8.18;6.43;;;25.60;45.20;;;;;;10110269;29;20209;-92
2023/09/29 13:21:44;;;;;;;7.30;5.97;;;25.60;41.90;;;;;;10167867;29;20227;-89
2023/09/29 13:26:47;;;;;;;62.45;9.30;;;25.60;42.20;;;;;;10164274;29;20275;-90
2023/09/29 13:31:49;;;;;;;7.13;5.60;;;25.60;44.60;;;;;;10126703;29;20692;-90
2023/09/29 13:36:52;;;;;;;7.85;5.82;;;25.60;46.30;;;;;;10130571;29;20216;-90
2023/09/29 13:41:56;;;;;;;10.48;6.28;;;25.60;48.00;;;;;;10129585;29;20304;-88
2023/09/29 13:46:58;;;;;;;8.50;5.53;;;25.60;47.60;;;;;;10109843;29;20325;-87
2023/09/29 13:52:06;;;;;;;14.93;6.65;;;25.50;46.60;;;;;;10127667;29;20342;-84
2023/09/29 13:57:09;;;;;;;13.98;6.05;;;25.50;49.80;;;;;;10139540;29;20314;-85
2023/09/29 14:02:14;;;;;;;15.95;6.60;;;25.40;48.10;;;;;;10139314;29;20318;-85
2023/09/29 14:07:17;;;;;;;10.02;6.25;;;25.30;46.70;;;;;;10170595;29;20240;-85
2023/09/29 14:12:19;;;;;;;14.25;6.78;;;25.20;47.90;;;;;;10172307;29;20234;-85
2023/09/29 14:17:22;;;;;;;12.00;7.43;;;25.10;45.90;;;;;;10171137;29;20766;-85
2023/09/29 14:22:24;;;;;;;12.20;6.47;;;25.00;46.90;;;;;;10133957;29;20276;-84
2023/09/29 14:27:27;;;;;;;8.55;5.35;;;24.90;46.40;;;;;;10159756;29;20330;-85
2023/09/29 14:32:30;;;;;;;11.77;6.53;;;24.80;46.20;;;;;;10168771;29;20325;-85
2023/09/29 14:37:32;;;;;;;16.00;6.22;;;24.80;47.70;;;;;;10148190;29;20299;-85
2023/09/29 14:42:35;;;;;;;12.75;7.40;;;24.70;48.10;;;;;;10128912;29;20327;-85
2023/09/29 14:47:38;;;;;;;12.20;7.00;;;24.60;49.10;;;;;;10112713;29;20268;-84
2023/09/29 14:52:41;;;;;;;9.77;5.63;;;24.60;50.10;;;;;;10129624;29;20315;-85
2023/09/29 14:57:43;;;;;;;7.80;6.10;;;24.40;50.30;;;;;;10128862;29;20283;-85
2023/09/29 15:02:46;;;;;;;10.55;6.63;;;24.30;51.70;;;;;;10112592;29;20409;-84
2023/09/29 15:07:48;;;;;;;9.57;6.35;;;24.30;51.70;;;;;;10129949;29;20239;-85
2023/09/29 15:12:51;;;;;;;9.48;5.57;;;24.20;53.10;;;;;;10128429;29;20303;-84
2023/09/29 15:17:54;;;;;;;13.18;6.55;;;24.00;54.10;;;;;;10129012;29;20321;-85
2023/09/29 15:22:57;;;;;;;11.25;5.68;;;23.90;55.20;;;;;;10129837;29;20311;-85
2023/09/29 15:27:59;;;;;;;10.80;6.63;;;23.70;57.60;;;;;;10130773;29;20339;-84
2023/09/29 15:33:02;;;;;;;17.70;7.00;;;23.50;62.70;;;;;;10113855;29;20251;-84
2023/09/29 15:38:05;;;;;;;7.57;5.38;;;23.30;68.20;;;;;;10136860;29;20232;-85
2023/09/29 15:43:07;;;;;;;9.35;6.03;;;23.10;69.10;;;;;;10130294;29;20727;-85
2023/09/29 15:48:10;;;;;;;17.10;7.18;;;22.90;73.40;;;;;;10112531;29;20243;-85
2023/09/29 15:53:18;;;;;;;11.27;7.05;;;22.70;79.80;;;;;;10129800;29;20240;-84
2023/09/29 15:58:20;;;;;;;9.88;6.75;;;22.50;86.80;;;;;;10112267;29;20295;-84
2023/09/29 16:03:23;;;;;;;13.82;7.22;;;22.30;84.50;;;;;;10111856;29;20271;-84
2023/09/29 16:08:26;;;;;;;11.18;6.78;;;22.30;85.00;;;;;;10129082;29;20231;-84
2023/09/29 16:13:31;;;;;;;12.63;7.05;;;22.00;89.70;;;;;;10112003;29;20692;-84
2023/09/29 16:18:35;;;;;;;9.80;6.82;;;22.00;90.10;;;;;;10111249;29;20330;-85
2023/09/29 16:23:37;;;;;;;11.10;7.38;;;21.80;91.60;;;;;;10128027;29;20259;-85
2023/09/29 16:28:40;;;;;;;11.73;7.82;;;21.60;93.60;;;;;;10127657;29;20263;-84
2023/09/29 16:33:44;;;;;;;9.63;7.07;;;21.50;93.90;;;;;;10110384;29;20252;-85
2023/09/29 16:38:49;;;;;;;23.00;6.72;;;21.40;94.20;;;;;;10111425;29;20235;-84
2023/09/29 16:43:52;;;;;;;13.95;7.22;;;21.20;94.90;;;;;;10123355;29;20314;-85
2023/09/29 16:48:55;;;;;;;14.13;7.47;;;;;;;;;;10166048;29;20243;-84
2023/09/29 16:54:00;;;;;;;14.18;7.13;;;21.30;96.40;;;;;;10110927;29;20295;-85
2023/09/29 16:59:03;;;;;;;27.05;7.95;;;20.90;97.60;;;;;;10127635;29;20266;-85
2023/09/29 17:04:08;;;;;;;20.08;7.70;;;21.00;97.30;;;;;;10126774;29;20315;-85
2023/09/29 17:09:10;;;;;;;16.02;7.63;;;21.00;97.60;;;;;;10136296;29;20272;-84
2023/09/29 17:14:17;;;;;;;14.57;7.20;;;20.90;98.00;;;;;;10109359;29;20666;-84
2023/09/29 17:19:19;;;;;;;10.82;6.15;;;20.90;98.20;;;;;;10126555;29;20240;-84
2023/09/29 17:24:22;;;;;;;20.75;8.57;;;21.00;97.90;;;;;;10126895;29;20268;-84
2023/09/29 17:29:27;;;;;;;28.67;9.68;;;21.00;97.60;;;;;;10114024;29;20236;-84
2023/09/29 17:34:31;;;;;;;21.45;9.10;;;20.80;98.50;;;;;;10135633;29;20240;-84
2023/09/29 17:39:34;;;;;;;21.48;8.45;;;20.70;99.00;;;;;;10133478;29;20236;-85
2023/09/29 17:44:39;;;;;;;13.30;7.05;;;20.60;99.70;;;;;;10134810;29;20252;-84
2023/09/29 17:49:42;;;;;;;14.88;7.95;;;20.60;99.60;;;;;;10134958;29;20327;-85
2023/09/29 17:54:45;;;;;;;25.50;8.57;;;20.70;99.90;;;;;;10134610;29;20240;-84
2023/09/29 17:59:48;;;;;;;43.70;9.90;;;20.70;99.90;;;;;;9792865;29;10000033;-85
2023/09/29 18:04:50;;;;;;;28.33;9.95;;;20.60;99.90;;;;;;10131588;29;20934;-84
2023/09/29 18:09:53;;;;;;;7.13;5.03;;;20.50;99.90;;;;;;10130545;29;20252;-84
2023/09/29 18:14:55;;;;;;;21.95;8.32;;;20.60;99.90;;;;;;10128929;29;20271;-84
2023/09/29 18:19:58;;;;;;;20.63;9.05;;;20.60;99.90;;;;;;10130744;29;20248;-85
2023/09/29 18:25:02;;;;;;;27.77;9.10;;;20.60;99.90;;;;;;10128508;29;20272;-84
2023/09/29 18:30:06;;;;;;;25.60;9.55;;;20.50;99.90;;;;;;10120360;29;20308;-85
2023/09/29 18:35:09;;;;;;;22.48;8.93;;;20.40;99.90;;;;;;10128464;29;20650;-85
2023/09/29 18:40:12;;;;;;;33.67;9.70;;;20.50;99.90;;;;;;10111639;29;20224;-85
2023/09/29 18:45:15;;;;;;;5.05;4.05;;;20.30;99.90;;;;;;10113403;29;20256;-85
2023/09/29 18:50:18;;;;;;;20.35;9.32;;;20.30;99.90;;;;;;10129676;29;20296;-85
2023/09/29 18:55:22;;;;;;;14.82;9.20;;;20.30;99.90;;;;;;10135178;29;20251;-85
2023/09/29 19:00:25;;;;;;;18.00;9.07;;;20.20;99.90;;;;;;10137532;29;20324;-85
2023/09/29 19:05:28;;;;;;;13.88;9.10;;;20.30;99.90;;;;;;10137839;29;20364;-85
2023/09/29 19:10:31;;;;;;;22.25;10.98;;;20.30;99.90;;;;;;10128387;29;20794;-85
2023/09/29 19:15:34;;;;;;;35.85;11.50;;;20.10;99.90;;;;;;10129260;29;20292;-85
2023/09/29 19:20:37;;;;;;;20.20;9.05;;;20.00;99.90;;;;;;10111236;29;20232;-86
2023/09/29 19:25:40;;;;;;;7.25;5.57;;;19.90;99.90;;;;;;10128173;29;20341;-85
2023/09/29 19:30:42;;;;;;;9.85;5.47;;;20.10;99.90;;;;;;10077925;29;20277;-85
2023/09/29 19:35:45;;;;;;;29.00;12.07;;;20.30;99.90;;;;;;10100911;29;20310;-85
2023/09/29 19:40:47;;;;;;;16.45;8.07;;;20.30;99.90;;;;;;10167314;29;20235;-85
2023/09/29 19:45:51;;;;;;;26.88;11.32;;;20.00;99.90;;;;;;10147887;29;20416;-85
2023/09/29 19:51:03;;;;;;;39.75;11.40;;;19.90;99.90;;;;;;10127283;29;20307;-85
2023/09/29 19:56:09;;;;;;;26.38;9.73;;;19.80;99.90;;;;;;10109690;29;20326;-85
2023/09/29 20:01:14;;;;;;;25.48;9.32;;;19.90;99.90;;;;;;10109905;29;20735;-85
2023/09/29 20:06:17;;;;;;;5.25;4.53;;;19.80;99.90;;;;;;10127254;29;20798;-85
2023/09/29 20:11:21;;;;;;;17.08;7.50;;;19.80;99.90;;;;;;10152020;29;20255;-85
2023/09/29 20:16:23;;;;;;;29.05;12.95;;;20.00;99.90;;;;;;10127085;29;20284;-85
2023/09/29 20:21:26;;;;;;;19.85;12.02;;;19.90;99.90;;;;;;10126177;29;20274;-85
2023/09/29 20:26:34;;;;;;;20.05;11.55;;;19.80;99.90;;;;;;10125458;29;20826;-85
2023/09/29 20:31:37;;;;;;;28.67;14.38;;;19.60;99.90;;;;;;10125012;29;20968;-85
2023/09/29 20:36:43;;;;;;;20.27;13.40;;;19.50;99.90;;;;;;10106202;29;20292;-85
2023/09/29 20:41:46;;;;;;;17.98;10.98;;;19.30;99.90;;;;;;10125611;29;20296;-85
2023/09/29 20:46:48;;;;;;;26.70;14.07;;;19.50;99.90;;;;;;10124926;29;20727;-85
2023/09/29 20:51:51;;;;;;;17.08;10.02;;;19.20;99.90;;;;;;10124744;29;20658;-86
2023/09/29 20:56:54;;;;;;;13.40;9.75;;;19.30;99.90;;;;;;10108553;29;20235;-85
2023/09/29 21:01:57;;;;;;;29.60;12.60;;;19.40;99.90;;;;;;10125224;29;20248;-85
2023/09/29 21:07:02;;;;;;;7.28;5.80;;;19.40;99.90;;;;;;10125540;29;20364;-85
2023/09/29 21:12:06;;;;;;;8.38;6.80;;;19.40;99.90;;;;;;10089016;29;20240;-85
2023/09/29 21:17:08;;;;;;;23.55;14.27;;;19.60;99.90;;;;;;10104163;29;20247;-87
2023/09/29 21:22:12;;;;;;;35.85;20.20;;;19.70;99.90;;;;;;10124836;29;20348;-86
2023/09/29 21:27:15;;;;;;;28.70;17.30;;;19.60;99.90;;;;;;10127736;29;20280;-86
2023/09/29 21:32:17;;;;;;;32.35;19.45;;;19.60;99.90;;;;;;10111694;29;20233;-86
2023/09/29 21:37:20;;;;;;;33.60;19.05;;;19.50;99.90;;;;;;10111091;29;20312;-86
2023/09/29 21:42:22;;;;;;;10.60;9.23;;;19.40;99.90;;;;;;10128502;29;20232;-86
2023/09/29 21:47:25;;;;;;;24.55;16.65;;;19.50;99.90;;;;;;10128133;29;20315;-84
2023/09/29 21:52:29;;;;;;;19.77;14.95;;;19.60;99.90;;;;;;10127228;29;20684;-86
2023/09/29 21:57:31;;;;;;;11.63;10.38;;;19.60;99.90;;;;;;10126423;29;20280;-86
2023/09/29 22:02:34;;;;;;;18.70;13.43;;;19.70;99.90;;;;;;10127402;29;20767;-86
2023/09/29 22:07:36;;;;;;;24.73;16.80;;;19.70;99.90;;;;;;10127351;29;20323;-86
2023/09/29 22:12:39;;;;;;;26.40;16.10;;;19.70;99.90;;;;;;10130841;29;20257;-86
2023/09/29 22:17:46;;;;;;;22.00;14.45;;;19.60;99.90;;;;;;10102487;29;20767;-86
2023/09/29 22:22:51;;;;;;;20.27;14.20;;;19.50;99.90;;;;;;10116843;29;20300;-86
2023/09/29 22:27:54;;;;;;;15.75;10.18;;;19.40;99.90;;;;;;10132964;29;20316;-86
2023/09/29 22:32:57;;;;;;;19.13;13.20;;;19.40;99.90;;;;;;10116962;29;20663;-86
2023/09/29 22:38:00;;;;;;;17.08;11.77;;;19.50;99.90;;;;;;10133590;29;20265;-86
2023/09/29 22:43:02;;;;;;;22.42;12.73;;;19.60;99.90;;;;;;10132890;29;20244;-86
2023/09/29 22:48:05;;;;;;;19.77;12.48;;;19.60;99.90;;;;;;10116299;29;20263;-86
2023/09/29 22:53:08;;;;;;;10.68;9.60;;;19.50;99.90;;;;;;10114714;29;20247;-86
2023/09/29 22:58:12;;;;;;;11.25;7.78;;;19.50;99.90;;;;;;10133168;29;20243;-86
2023/09/29 23:03:14;;;;;;;18.80;12.45;;;19.60;99.90;;;;;;10131960;29;20244;-86
2023/09/29 23:08:17;;;;;;;19.15;11.60;;;19.60;99.90;;;;;;10132850;29;20260;-86
2023/09/29 23:13:21;;;;;;;16.67;12.18;;;19.60;99.90;;;;;;10114302;29;20227;-86
2023/09/29 23:18:23;;;;;;;15.85;10.82;;;19.60;99.90;;;;;;10132159;29;20244;-86
2023/09/29 23:23:26;;;;;;;14.90;9.65;;;19.70;99.90;;;;;;10114193;29;21018;-87
2023/09/29 23:28:29;;;;;;;12.98;11.38;;;19.70;99.90;;;;;;10115429;29;20799;-86
2023/09/29 23:33:34;;;;;;;12.52;10.25;;;19.70;99.90;;;;;;10130416;29;20244;-87
2023/09/29 23:38:37;;;;;;;14.85;9.43;;;19.80;99.90;;;;;;10131204;29;20271;-86
2023/09/29 23:43:40;;;;;;;15.05;9.27;;;19.90;99.90;;;;;;10131554;29;20292;-86
2023/09/29 23:48:43;;;;;;;7.05;6.25;;;20.00;99.90;;;;;;10129432;29;20790;-86
2023/09/29 23:53:46;;;;;;;10.02;7.85;;;20.00;99.90;;;;;;10127865;29;20232;-86
2023/09/29 23:58:48;;;;;;;6.05;5.45;;;20.10;99.90;;;;;;10112959;29;20299;-86
